sensor_id;sensor_type;location;lat;lon;timestamp;P1;durP1;ratioP1;P2;durP2;ratioP2
1509;SDS011;746;48.688;9.428;2023-04-24T00:00:51;1.30;;;1.20;;
1509;SDS011;746;48.688;9.428;2023-04-24T00:03:12;1.60;;;1.50;;
1509;SDS011;746;48.688;9.428;2023-04-24T00:05:35;1.97;;;1.43;;
1509;SDS011;746;48.688;9.428;2023-04-24T00:07:56;1.67;;;1.57;;
1509;SDS011;746;48.688;9.428;2023-04-24T00:10:18;1.87;;;1.53;;
1509;SDS011;746;48.688;9.428;2023-04-24T00:12:39;1.87;;;1.50;;
1509;SDS011;746;48.688;9.428;2023-04-24T00:15:00;1.80;;;1.43;;
1509;SDS011;746;48.688;9.428;2023-04-24T00:17:21;1.40;;;1.40;;
1509;SDS011;746;48.688;9.428;2023-04-24T00:19:43;1.63;;;1.50;;
1509;SDS011;746;48.688;9.428;2023-04-24T00:22:06;2.43;;;1.43;;
1509;SDS011;746;48.688;9.428;2023-04-24T00:24:27;1.80;;;1.70;;
1509;SDS011;746;48.688;9.428;2023-04-24T00:26:48;2.00;;;1.40;;
1509;SDS011;746;48.688;9.428;2023-04-24T00:29:10;1.43;;;1.40;;
1509;SDS011;746;48.688;9.428;2023-04-24T00:31:31;1.60;;;1.50;;
1509;SDS011;746;48.688;9.428;2023-04-24T00:33:54;1.63;;;1.53;;
1509;SDS011;746;48.688;9.428;2023-04-24T00:36:16;1.43;;;1.33;;
1509;SDS011;746;48.688;9.428;2023-04-24T00:38:40;1.50;;;1.40;;
1509;SDS011;746;48.688;9.428;2023-04-24T00:41:02;1.50;;;1.40;;
1509;SDS011;746;48.688;9.428;2023-04-24T00:43:23;1.73;;;1.60;;
1509;SDS011;746;48.688;9.428;2023-04-24T00:45:44;1.53;;;1.30;;
1509;SDS011;746;48.688;9.428;2023-04-24T00:48:05;1.60;;;1.50;;
1509;SDS011;746;48.688;9.428;2023-04-24T00:50:27;2.40;;;1.40;;
1509;SDS011;746;48.688;9.428;2023-04-24T00:52:49;1.87;;;1.40;;
1509;SDS011;746;48.688;9.428;2023-04-24T00:55:12;1.53;;;1.43;;
1509;SDS011;746;48.688;9.428;2023-04-24T00:57:33;1.50;;;1.40;;
1509;SDS011;746;48.688;9.428;2023-04-24T00:59:55;1.43;;;1.33;;
1509;SDS011;746;48.688;9.428;2023-04-24T01:02:16;2.07;;;1.30;;
1509;SDS011;746;48.688;9.428;2023-04-24T01:04:37;1.57;;;1.50;;
1509;SDS011;746;48.688;9.428;2023-04-24T01:06:59;1.23;;;1.13;;
1509;SDS011;746;48.688;9.428;2023-04-24T01:09:21;1.30;;;1.30;;
1509;SDS011;746;48.688;9.428;2023-04-24T01:11:44;1.63;;;1.37;;
1509;SDS011;746;48.688;9.428;2023-04-24T01:14:05;1.60;;;1.50;;
1509;SDS011;746;48.688;9.428;2023-04-24T01:16:26;1.97;;;1.63;;
1509;SDS011;746;48.688;9.428;2023-04-24T01:18:48;1.43;;;1.37;;
1509;SDS011;746;48.688;9.428;2023-04-24T01:21:09;2.10;;;1.43;;
1509;SDS011;746;48.688;9.428;2023-04-24T01:23:32;3.63;;;1.40;;
1509;SDS011;746;48.688;9.428;2023-04-24T01:25:53;1.50;;;1.40;;
1509;SDS011;746;48.688;9.428;2023-04-24T01:28:15;1.30;;;1.30;;
1509;SDS011;746;48.688;9.428;2023-04-24T01:30:36;1.87;;;1.47;;
1509;SDS011;746;48.688;9.428;2023-04-24T01:32:58;1.97;;;1.50;;
1509;SDS011;746;48.688;9.428;2023-04-24T01:35:19;1.30;;;1.20;;
1509;SDS011;746;48.688;9.428;2023-04-24T01:37:41;1.47;;;1.37;;
1509;SDS011;746;48.688;9.428;2023-04-24T01:40:04;1.53;;;1.40;;
1509;SDS011;746;48.688;9.428;2023-04-24T01:42:26;1.20;;;1.17;;
1509;SDS011;746;48.688;9.428;2023-04-24T01:44:47;2.73;;;1.40;;
1509;SDS011;746;48.688;9.428;2023-04-24T01:47:08;1.50;;;1.40;;
1509;SDS011;746;48.688;9.428;2023-04-24T01:49:30;1.40;;;1.37;;
1509;SDS011;746;48.688;9.428;2023-04-24T01:51:51;1.60;;;1.50;;
1509;SDS011;746;48.688;9.428;2023-04-24T01:54:12;1.30;;;1.30;;
1509;SDS011;746;48.688;9.428;2023-04-24T01:56:35;2.97;;;1.50;;
1509;SDS011;746;48.688;9.428;2023-04-24T01:58:57;1.70;;;1.60;;
1509;SDS011;746;48.688;9.428;2023-04-24T02:01:18;2.00;;;1.47;;
1509;SDS011;746;48.688;9.428;2023-04-24T02:03:40;2.60;;;1.70;;
1509;SDS011;746;48.688;9.428;2023-04-24T02:06:01;3.23;;;1.60;;
1509;SDS011;746;48.688;9.428;2023-04-24T02:08:23;3.50;;;1.40;;
1509;SDS011;746;48.688;9.428;2023-04-24T02:10:44;1.83;;;1.67;;
1509;SDS011;746;48.688;9.428;2023-04-24T02:13:07;3.70;;;2.60;;
1509;SDS011;746;48.688;9.428;2023-04-24T02:15:28;2.97;;;2.07;;
1509;SDS011;746;48.688;9.428;2023-04-24T02:17:50;2.57;;;1.80;;
1509;SDS011;746;48.688;9.428;2023-04-24T02:20:11;1.73;;;1.40;;
1509;SDS011;746;48.688;9.428;2023-04-24T02:22:32;2.37;;;1.30;;
1509;SDS011;746;48.688;9.428;2023-04-24T02:24:53;1.40;;;1.30;;
1509;SDS011;746;48.688;9.428;2023-04-24T02:27:15;2.07;;;1.30;;
1509;SDS011;746;48.688;9.428;2023-04-24T02:29:37;1.30;;;1.30;;
1509;SDS011;746;48.688;9.428;2023-04-24T02:31:58;1.50;;;1.40;;
1509;SDS011;746;48.688;9.428;2023-04-24T02:34:20;1.30;;;1.20;;
1509;SDS011;746;48.688;9.428;2023-04-24T02:36:41;1.90;;;1.40;;
1509;SDS011;746;48.688;9.428;2023-04-24T02:39:03;1.50;;;1.40;;
1509;SDS011;746;48.688;9.428;2023-04-24T02:41:24;1.73;;;1.63;;
1509;SDS011;746;48.688;9.428;2023-04-24T02:43:50;3.40;;;1.50;;
1509;SDS011;746;48.688;9.428;2023-04-24T02:46:13;1.87;;;1.50;;
1509;SDS011;746;48.688;9.428;2023-04-24T02:48:34;2.07;;;1.73;;
1509;SDS011;746;48.688;9.428;2023-04-24T02:50:55;3.10;;;1.57;;
1509;SDS011;746;48.688;9.428;2023-04-24T02:53:17;2.13;;;1.50;;
1509;SDS011;746;48.688;9.428;2023-04-24T02:55:38;1.40;;;1.40;;
1509;SDS011;746;48.688;9.428;2023-04-24T02:57:59;1.90;;;1.40;;
1509;SDS011;746;48.688;9.428;2023-04-24T03:00:21;1.50;;;1.40;;
1509;SDS011;746;48.688;9.428;2023-04-24T03:02:43;1.37;;;1.20;;
1509;SDS011;746;48.688;9.428;2023-04-24T03:05:04;1.17;;;1.17;;
1509;SDS011;746;48.688;9.428;2023-04-24T03:07:27;1.43;;;1.43;;
1509;SDS011;746;48.688;9.428;2023-04-24T03:09:48;1.10;;;1.10;;
1509;SDS011;746;48.688;9.428;2023-04-24T03:12:09;1.10;;;1.10;;
1509;SDS011;746;48.688;9.428;2023-04-24T03:14:31;2.50;;;1.50;;
1509;SDS011;746;48.688;9.428;2023-04-24T03:16:52;1.40;;;1.30;;
1509;SDS011;746;48.688;9.428;2023-04-24T03:19:15;2.77;;;1.27;;
1509;SDS011;746;48.688;9.428;2023-04-24T03:21:36;2.50;;;1.23;;
1509;SDS011;746;48.688;9.428;2023-04-24T03:24:00;1.70;;;1.57;;
1509;SDS011;746;48.688;9.428;2023-04-24T03:26:22;1.73;;;1.37;;
1509;SDS011;746;48.688;9.428;2023-04-24T03:28:43;2.57;;;1.30;;
1509;SDS011;746;48.688;9.428;2023-04-24T03:31:04;1.53;;;1.43;;
1509;SDS011;746;48.688;9.428;2023-04-24T03:33:25;1.70;;;1.60;;
1509;SDS011;746;48.688;9.428;2023-04-24T03:35:48;1.87;;;1.77;;
1509;SDS011;746;48.688;9.428;2023-04-24T03:38:09;1.50;;;1.40;;
1509;SDS011;746;48.688;9.428;2023-04-24T03:40:31;1.70;;;1.60;;
1509;SDS011;746;48.688;9.428;2023-04-24T03:42:53;1.60;;;1.50;;
1509;SDS011;746;48.688;9.428;2023-04-24T03:45:15;1.57;;;1.40;;
1509;SDS011;746;48.688;9.428;2023-04-24T03:47:36;1.97;;;1.87;;
1509;SDS011;746;48.688;9.428;2023-04-24T03:49:57;1.63;;;1.53;;
1509;SDS011;746;48.688;9.428;2023-04-24T03:52:20;1.30;;;1.30;;
1509;SDS011;746;48.688;9.428;2023-04-24T03:54:41;1.90;;;1.80;;
1509;SDS011;746;48.688;9.428;2023-04-24T03:57:03;1.60;;;1.50;;
1509;SDS011;746;48.688;9.428;2023-04-24T03:59:24;1.33;;;1.23;;
1509;SDS011;746;48.688;9.428;2023-04-24T04:01:45;1.60;;;1.40;;
1509;SDS011;746;48.688;9.428;2023-04-24T04:04:07;1.70;;;1.50;;
1509;SDS011;746;48.688;9.428;2023-04-24T04:06:28;1.70;;;1.60;;
1509;SDS011;746;48.688;9.428;2023-04-24T04:08:52;2.07;;;1.40;;
1509;SDS011;746;48.688;9.428;2023-04-24T04:11:13;1.53;;;1.43;;
1509;SDS011;746;48.688;9.428;2023-04-24T04:13:34;1.90;;;1.60;;
1509;SDS011;746;48.688;9.428;2023-04-24T04:15:55;1.67;;;1.57;;
1509;SDS011;746;48.688;9.428;2023-04-24T04:18:17;1.60;;;1.50;;
1509;SDS011;746;48.688;9.428;2023-04-24T04:20:38;1.83;;;1.33;;
1509;SDS011;746;48.688;9.428;2023-04-24T04:22:59;1.57;;;1.53;;
1509;SDS011;746;48.688;9.428;2023-04-24T04:25:22;1.60;;;1.60;;
1509;SDS011;746;48.688;9.428;2023-04-24T04:27:43;1.57;;;1.43;;
1509;SDS011;746;48.688;9.428;2023-04-24T04:30:05;2.53;;;1.50;;
1509;SDS011;746;48.688;9.428;2023-04-24T04:32:27;2.80;;;1.40;;
1509;SDS011;746;48.688;9.428;2023-04-24T04:34:48;1.50;;;1.40;;
1509;SDS011;746;48.688;9.428;2023-04-24T04:37:13;3.03;;;1.53;;
1509;SDS011;746;48.688;9.428;2023-04-24T04:39:34;3.00;;;1.30;;
1509;SDS011;746;48.688;9.428;2023-04-24T04:41:57;1.60;;;1.50;;
1509;SDS011;746;48.688;9.428;2023-04-24T04:44:18;2.27;;;1.20;;
1509;SDS011;746;48.688;9.428;2023-04-24T04:46:39;1.40;;;1.30;;
1509;SDS011;746;48.688;9.428;2023-04-24T04:49:01;1.30;;;1.20;;
1509;SDS011;746;48.688;9.428;2023-04-24T04:51:23;1.43;;;1.37;;
1509;SDS011;746;48.688;9.428;2023-04-24T04:53:44;1.70;;;1.60;;
1509;SDS011;746;48.688;9.428;2023-04-24T04:56:05;2.70;;;2.20;;
1509;SDS011;746;48.688;9.428;2023-04-24T04:58:28;1.97;;;1.80;;
1509;SDS011;746;48.688;9.428;2023-04-24T05:00:49;2.30;;;1.60;;
1509;SDS011;746;48.688;9.428;2023-04-24T05:03:12;2.57;;;1.70;;
1509;SDS011;746;48.688;9.428;2023-04-24T05:05:38;2.20;;;2.00;;
1509;SDS011;746;48.688;9.428;2023-04-24T05:08:00;2.23;;;2.13;;
1509;SDS011;746;48.688;9.428;2023-04-24T05:10:23;2.33;;;2.17;;
1509;SDS011;746;48.688;9.428;2023-04-24T05:12:44;2.63;;;2.50;;
1509;SDS011;746;48.688;9.428;2023-04-24T05:15:08;3.13;;;2.30;;
1509;SDS011;746;48.688;9.428;2023-04-24T05:17:29;2.87;;;2.67;;
1509;SDS011;746;48.688;9.428;2023-04-24T05:19:50;2.90;;;2.70;;
1509;SDS011;746;48.688;9.428;2023-04-24T05:22:12;2.80;;;2.60;;
1509;SDS011;746;48.688;9.428;2023-04-24T05:24:33;2.80;;;2.60;;
1509;SDS011;746;48.688;9.428;2023-04-24T05:26:54;3.17;;;2.77;;
1509;SDS011;746;48.688;9.428;2023-04-24T05:29:17;2.70;;;2.50;;
1509;SDS011;746;48.688;9.428;2023-04-24T05:31:40;2.70;;;2.50;;
1509;SDS011;746;48.688;9.428;2023-04-24T05:34:01;2.40;;;2.20;;
1509;SDS011;746;48.688;9.428;2023-04-24T05:36:23;2.57;;;2.47;;
1509;SDS011;746;48.688;9.428;2023-04-24T05:38:44;2.93;;;2.73;;
1509;SDS011;746;48.688;9.428;2023-04-24T05:41:05;7.97;;;5.17;;
1509;SDS011;746;48.688;9.428;2023-04-24T05:43:27;6.33;;;4.70;;
1509;SDS011;746;48.688;9.428;2023-04-24T05:45:48;3.17;;;2.97;;
1509;SDS011;746;48.688;9.428;2023-04-24T05:48:11;2.90;;;2.70;;
1509;SDS011;746;48.688;9.428;2023-04-24T05:50:32;3.30;;;3.10;;
1509;SDS011;746;48.688;9.428;2023-04-24T05:52:56;2.73;;;2.60;;
1509;SDS011;746;48.688;9.428;2023-04-24T05:55:18;2.87;;;2.67;;
1509;SDS011;746;48.688;9.428;2023-04-24T05:57:39;2.43;;;2.23;;
1509;SDS011;746;48.688;9.428;2023-04-24T06:00:00;4.10;;;2.43;;
1509;SDS011;746;48.688;9.428;2023-04-24T06:02:22;2.77;;;2.57;;
1509;SDS011;746;48.688;9.428;2023-04-24T06:04:45;2.73;;;2.53;;
1509;SDS011;746;48.688;9.428;2023-04-24T06:07:07;2.80;;;2.60;;
1509;SDS011;746;48.688;9.428;2023-04-24T06:09:29;2.80;;;2.70;;
1509;SDS011;746;48.688;9.428;2023-04-24T06:11:50;3.60;;;3.00;;
1509;SDS011;746;48.688;9.428;2023-04-24T06:14:13;3.13;;;2.90;;
1509;SDS011;746;48.688;9.428;2023-04-24T06:16:34;3.70;;;3.37;;
1509;SDS011;746;48.688;9.428;2023-04-24T06:18:55;3.47;;;3.10;;
1509;SDS011;746;48.688;9.428;2023-04-24T06:21:18;5.77;;;2.67;;
1509;SDS011;746;48.688;9.428;2023-04-24T06:23:40;3.47;;;3.17;;
1509;SDS011;746;48.688;9.428;2023-04-24T06:26:01;3.27;;;3.07;;
1509;SDS011;746;48.688;9.428;2023-04-24T06:28:22;2.93;;;2.73;;
1509;SDS011;746;48.688;9.428;2023-04-24T06:30:43;3.17;;;2.87;;
1509;SDS011;746;48.688;9.428;2023-04-24T06:33:05;3.60;;;2.40;;
1509;SDS011;746;48.688;9.428;2023-04-24T06:35:40;2.73;;;2.33;;
1509;SDS011;746;48.688;9.428;2023-04-24T06:38:03;2.97;;;2.70;;
1509;SDS011;746;48.688;9.428;2023-04-24T06:40:24;2.70;;;2.50;;
1509;SDS011;746;48.688;9.428;2023-04-24T06:42:45;2.87;;;2.67;;
1509;SDS011;746;48.688;9.428;2023-04-24T06:45:07;2.80;;;2.60;;
1509;SDS011;746;48.688;9.428;2023-04-24T06:47:28;2.77;;;2.63;;
1509;SDS011;746;48.688;9.428;2023-04-24T06:49:49;2.90;;;2.70;;
1509;SDS011;746;48.688;9.428;2023-04-24T06:52:12;3.30;;;3.00;;
1509;SDS011;746;48.688;9.428;2023-04-24T06:54:35;2.90;;;2.80;;
1509;SDS011;746;48.688;9.428;2023-04-24T06:56:56;2.23;;;2.13;;
1509;SDS011;746;48.688;9.428;2023-04-24T06:59:18;3.63;;;2.60;;
1509;SDS011;746;48.688;9.428;2023-04-24T07:01:39;3.20;;;2.57;;
1509;SDS011;746;48.688;9.428;2023-04-24T07:04:00;2.90;;;2.60;;
1509;SDS011;746;48.688;9.428;2023-04-24T07:06:22;2.13;;;2.00;;
1509;SDS011;746;48.688;9.428;2023-04-24T07:08:44;2.10;;;2.00;;
1509;SDS011;746;48.688;9.428;2023-04-24T07:11:06;2.40;;;2.20;;
1509;SDS011;746;48.688;9.428;2023-04-24T07:13:28;2.40;;;2.30;;
1509;SDS011;746;48.688;9.428;2023-04-24T07:15:49;2.17;;;2.07;;
1509;SDS011;746;48.688;9.428;2023-04-24T07:18:11;2.70;;;2.43;;
1509;SDS011;746;48.688;9.428;2023-04-24T07:20:32;2.50;;;2.30;;
1509;SDS011;746;48.688;9.428;2023-04-24T07:22:54;2.20;;;2.00;;
1509;SDS011;746;48.688;9.428;2023-04-24T07:25:15;2.50;;;2.40;;
1509;SDS011;746;48.688;9.428;2023-04-24T07:27:38;2.90;;;2.70;;
1509;SDS011;746;48.688;9.428;2023-04-24T07:29:59;2.50;;;2.30;;
1509;SDS011;746;48.688;9.428;2023-04-24T07:32:21;2.30;;;2.20;;
1509;SDS011;746;48.688;9.428;2023-04-24T07:34:42;2.40;;;2.20;;
1509;SDS011;746;48.688;9.428;2023-04-24T07:37:03;2.10;;;2.00;;
1509;SDS011;746;48.688;9.428;2023-04-24T07:39:25;2.30;;;2.10;;
1509;SDS011;746;48.688;9.428;2023-04-24T07:41:46;2.47;;;2.37;;
1509;SDS011;746;48.688;9.428;2023-04-24T07:44:09;3.23;;;2.60;;
1509;SDS011;746;48.688;9.428;2023-04-24T07:46:30;2.70;;;2.50;;
1509;SDS011;746;48.688;9.428;2023-04-24T07:48:51;3.03;;;2.77;;
1509;SDS011;746;48.688;9.428;2023-04-24T07:51:28;3.20;;;2.90;;
1509;SDS011;746;48.688;9.428;2023-04-24T07:53:50;3.47;;;3.00;;
1509;SDS011;746;48.688;9.428;2023-04-24T07:56:11;3.03;;;2.80;;
1509;SDS011;746;48.688;9.428;2023-04-24T07:58:32;3.80;;;2.60;;
1509;SDS011;746;48.688;9.428;2023-04-24T08:00:55;3.53;;;2.60;;
1509;SDS011;746;48.688;9.428;2023-04-24T08:03:16;2.90;;;2.73;;
1509;SDS011;746;48.688;9.428;2023-04-24T08:05:40;3.03;;;2.53;;
1509;SDS011;746;48.688;9.428;2023-04-24T08:08:03;2.83;;;2.70;;
1509;SDS011;746;48.688;9.428;2023-04-24T08:10:24;2.40;;;2.27;;
1509;SDS011;746;48.688;9.428;2023-04-24T08:12:45;1.93;;;1.83;;
1509;SDS011;746;48.688;9.428;2023-04-24T08:15:07;2.73;;;2.13;;
1509;SDS011;746;48.688;9.428;2023-04-24T08:17:30;1.90;;;1.80;;
1509;SDS011;746;48.688;9.428;2023-04-24T08:19:51;2.30;;;2.20;;
1509;SDS011;746;48.688;9.428;2023-04-24T08:22:18;2.10;;;2.00;;
1509;SDS011;746;48.688;9.428;2023-04-24T08:24:40;2.00;;;1.83;;
1509;SDS011;746;48.688;9.428;2023-04-24T08:27:01;2.10;;;2.00;;
1509;SDS011;746;48.688;9.428;2023-04-24T08:29:23;1.97;;;1.87;;
1509;SDS011;746;48.688;9.428;2023-04-24T08:31:44;3.17;;;2.20;;
1509;SDS011;746;48.688;9.428;2023-04-24T08:34:07;3.40;;;3.10;;
1509;SDS011;746;48.688;9.428;2023-04-24T08:36:28;2.00;;;1.90;;
1509;SDS011;746;48.688;9.428;2023-04-24T08:39:05;4.77;;;1.93;;
1509;SDS011;746;48.688;9.428;2023-04-24T08:41:26;1.90;;;1.80;;
1509;SDS011;746;48.688;9.428;2023-04-24T08:43:47;3.13;;;1.83;;
1509;SDS011;746;48.688;9.428;2023-04-24T08:46:09;2.40;;;2.20;;
1509;SDS011;746;48.688;9.428;2023-04-24T08:48:32;2.43;;;1.90;;
1509;SDS011;746;48.688;9.428;2023-04-24T08:50:54;2.03;;;1.80;;
1509;SDS011;746;48.688;9.428;2023-04-24T08:53:17;1.93;;;1.80;;
1509;SDS011;746;48.688;9.428;2023-04-24T08:55:39;3.53;;;1.70;;
1509;SDS011;746;48.688;9.428;2023-04-24T08:58:02;1.83;;;1.80;;
1509;SDS011;746;48.688;9.428;2023-04-24T09:00:23;3.70;;;2.17;;
1509;SDS011;746;48.688;9.428;2023-04-24T09:02:45;3.10;;;2.20;;
1509;SDS011;746;48.688;9.428;2023-04-24T09:05:08;2.40;;;2.20;;
1509;SDS011;746;48.688;9.428;2023-04-24T09:07:31;2.13;;;2.00;;
1509;SDS011;746;48.688;9.428;2023-04-24T09:09:56;1.90;;;1.80;;
1509;SDS011;746;48.688;9.428;2023-04-24T09:12:17;1.63;;;1.60;;
1509;SDS011;746;48.688;9.428;2023-04-24T09:14:39;1.90;;;1.80;;
1509;SDS011;746;48.688;9.428;2023-04-24T09:17:05;2.10;;;1.93;;
1509;SDS011;746;48.688;9.428;2023-04-24T09:19:27;2.03;;;1.83;;
1509;SDS011;746;48.688;9.428;2023-04-24T09:21:48;2.87;;;1.83;;
1509;SDS011;746;48.688;9.428;2023-04-24T09:24:15;1.83;;;1.73;;
1509;SDS011;746;48.688;9.428;2023-04-24T09:26:38;2.03;;;1.77;;
1509;SDS011;746;48.688;9.428;2023-04-24T09:28:59;1.87;;;1.70;;
1509;SDS011;746;48.688;9.428;2023-04-24T09:31:20;1.77;;;1.67;;
1509;SDS011;746;48.688;9.428;2023-04-24T09:33:47;2.60;;;1.80;;
1509;SDS011;746;48.688;9.428;2023-04-24T09:36:14;1.90;;;1.80;;
1509;SDS011;746;48.688;9.428;2023-04-24T09:38:38;1.80;;;1.70;;
1509;SDS011;746;48.688;9.428;2023-04-24T09:41:01;2.13;;;1.90;;
1509;SDS011;746;48.688;9.428;2023-04-24T09:43:23;2.23;;;2.00;;
1509;SDS011;746;48.688;9.428;2023-04-24T09:45:47;2.20;;;1.77;;
1509;SDS011;746;48.688;9.428;2023-04-24T09:48:08;2.00;;;1.90;;
1509;SDS011;746;48.688;9.428;2023-04-24T09:50:30;3.13;;;1.90;;
1509;SDS011;746;48.688;9.428;2023-04-24T09:52:58;1.70;;;1.70;;
1509;SDS011;746;48.688;9.428;2023-04-24T09:55:20;1.60;;;1.50;;
1509;SDS011;746;48.688;9.428;2023-04-24T09:57:52;1.77;;;1.67;;
1509;SDS011;746;48.688;9.428;2023-04-24T10:00:17;1.80;;;1.70;;
1509;SDS011;746;48.688;9.428;2023-04-24T10:02:39;1.43;;;1.33;;
1509;SDS011;746;48.688;9.428;2023-04-24T10:05:00;1.43;;;1.43;;
1509;SDS011;746;48.688;9.428;2023-04-24T10:07:21;1.40;;;1.30;;
1509;SDS011;746;48.688;9.428;2023-04-24T10:09:42;3.53;;;1.37;;
1509;SDS011;746;48.688;9.428;2023-04-24T10:12:04;1.33;;;1.23;;
1509;SDS011;746;48.688;9.428;2023-04-24T10:14:29;1.13;;;1.10;;
1509;SDS011;746;48.688;9.428;2023-04-24T10:16:53;1.17;;;1.17;;
1509;SDS011;746;48.688;9.428;2023-04-24T10:19:15;1.90;;;1.33;;
1509;SDS011;746;48.688;9.428;2023-04-24T10:21:38;2.17;;;1.30;;
1509;SDS011;746;48.688;9.428;2023-04-24T10:24:02;1.57;;;1.40;;
1509;SDS011;746;48.688;9.428;2023-04-24T10:26:24;1.33;;;1.27;;
1509;SDS011;746;48.688;9.428;2023-04-24T10:28:46;1.27;;;1.17;;
1509;SDS011;746;48.688;9.428;2023-04-24T10:31:09;1.20;;;1.20;;
1509;SDS011;746;48.688;9.428;2023-04-24T10:33:30;1.40;;;1.30;;
1509;SDS011;746;48.688;9.428;2023-04-24T10:35:52;4.40;;;1.30;;
1509;SDS011;746;48.688;9.428;2023-04-24T10:38:14;3.83;;;1.70;;
1509;SDS011;746;48.688;9.428;2023-04-24T10:40:36;1.40;;;1.40;;
1509;SDS011;746;48.688;9.428;2023-04-24T10:42:58;2.23;;;1.50;;
1509;SDS011;746;48.688;9.428;2023-04-24T10:45:19;1.47;;;1.30;;
1509;SDS011;746;48.688;9.428;2023-04-24T10:47:43;1.40;;;1.30;;
1509;SDS011;746;48.688;9.428;2023-04-24T10:50:11;1.50;;;1.40;;
1509;SDS011;746;48.688;9.428;2023-04-24T10:52:43;2.00;;;1.20;;
1509;SDS011;746;48.688;9.428;2023-04-24T10:55:04;1.20;;;1.20;;
1509;SDS011;746;48.688;9.428;2023-04-24T10:57:26;1.30;;;1.30;;
1509;SDS011;746;48.688;9.428;2023-04-24T10:59:49;1.17;;;1.17;;
1509;SDS011;746;48.688;9.428;2023-04-24T11:02:10;1.57;;;1.30;;
1509;SDS011;746;48.688;9.428;2023-04-24T11:04:33;4.10;;;1.20;;
1509;SDS011;746;48.688;9.428;2023-04-24T11:06:54;1.33;;;1.20;;
1509;SDS011;746;48.688;9.428;2023-04-24T11:09:16;1.10;;;1.10;;
1509;SDS011;746;48.688;9.428;2023-04-24T11:11:38;1.20;;;1.20;;
1509;SDS011;746;48.688;9.428;2023-04-24T11:14:05;1.17;;;1.10;;
1509;SDS011;746;48.688;9.428;2023-04-24T11:16:28;1.73;;;1.37;;
1509;SDS011;746;48.688;9.428;2023-04-24T11:18:50;1.30;;;1.20;;
1509;SDS011;746;48.688;9.428;2023-04-24T11:21:17;1.73;;;1.63;;
1509;SDS011;746;48.688;9.428;2023-04-24T11:23:39;1.30;;;1.20;;
1509;SDS011;746;48.688;9.428;2023-04-24T11:26:09;1.10;;;1.10;;
1509;SDS011;746;48.688;9.428;2023-04-24T11:28:31;3.00;;;1.43;;
1509;SDS011;746;48.688;9.428;2023-04-24T11:30:52;1.40;;;1.30;;
1509;SDS011;746;48.688;9.428;2023-04-24T11:33:14;1.50;;;1.40;;
1509;SDS011;746;48.688;9.428;2023-04-24T11:35:40;1.57;;;1.40;;
1509;SDS011;746;48.688;9.428;2023-04-24T11:38:03;1.77;;;1.30;;
1509;SDS011;746;48.688;9.428;2023-04-24T11:40:28;1.43;;;1.40;;
1509;SDS011;746;48.688;9.428;2023-04-24T11:42:50;1.43;;;1.40;;
1509;SDS011;746;48.688;9.428;2023-04-24T11:45:11;1.53;;;1.50;;
1509;SDS011;746;48.688;9.428;2023-04-24T11:47:33;1.70;;;1.60;;
1509;SDS011;746;48.688;9.428;2023-04-24T11:49:54;1.50;;;1.50;;
1509;SDS011;746;48.688;9.428;2023-04-24T11:52:16;1.73;;;1.63;;
1509;SDS011;746;48.688;9.428;2023-04-24T11:54:39;1.50;;;1.40;;
1509;SDS011;746;48.688;9.428;2023-04-24T11:57:07;1.60;;;1.50;;
1509;SDS011;746;48.688;9.428;2023-04-24T11:59:28;4.17;;;1.57;;
1509;SDS011;746;48.688;9.428;2023-04-24T12:01:49;1.50;;;1.50;;
1509;SDS011;746;48.688;9.428;2023-04-24T12:04:11;1.67;;;1.30;;
1509;SDS011;746;48.688;9.428;2023-04-24T12:06:33;1.20;;;1.20;;
1509;SDS011;746;48.688;9.428;2023-04-24T12:08:54;1.70;;;1.60;;
1509;SDS011;746;48.688;9.428;2023-04-24T12:11:32;1.90;;;1.50;;
1509;SDS011;746;48.688;9.428;2023-04-24T12:13:53;1.47;;;1.37;;
1509;SDS011;746;48.688;9.428;2023-04-24T12:16:14;1.20;;;1.20;;
1509;SDS011;746;48.688;9.428;2023-04-24T12:18:40;1.30;;;1.30;;
1509;SDS011;746;48.688;9.428;2023-04-24T12:21:14;1.43;;;1.30;;
1509;SDS011;746;48.688;9.428;2023-04-24T12:23:35;1.17;;;1.17;;
1509;SDS011;746;48.688;9.428;2023-04-24T12:25:59;1.70;;;1.57;;
1509;SDS011;746;48.688;9.428;2023-04-24T12:28:22;1.23;;;1.23;;
1509;SDS011;746;48.688;9.428;2023-04-24T12:30:45;1.40;;;1.40;;
1509;SDS011;746;48.688;9.428;2023-04-24T12:33:08;1.60;;;1.50;;
1509;SDS011;746;48.688;9.428;2023-04-24T12:35:30;1.50;;;1.40;;
1509;SDS011;746;48.688;9.428;2023-04-24T12:37:53;1.57;;;1.47;;
1509;SDS011;746;48.688;9.428;2023-04-24T12:40:15;1.87;;;1.77;;
1509;SDS011;746;48.688;9.428;2023-04-24T12:42:42;1.83;;;1.60;;
1509;SDS011;746;48.688;9.428;2023-04-24T12:45:05;1.73;;;1.63;;
1509;SDS011;746;48.688;9.428;2023-04-24T12:47:29;2.00;;;1.80;;
1509;SDS011;746;48.688;9.428;2023-04-24T12:49:50;2.37;;;1.80;;
1509;SDS011;746;48.688;9.428;2023-04-24T12:52:12;1.73;;;1.63;;
1509;SDS011;746;48.688;9.428;2023-04-24T12:54:33;1.60;;;1.50;;
1509;SDS011;746;48.688;9.428;2023-04-24T12:56:54;2.00;;;1.80;;
1509;SDS011;746;48.688;9.428;2023-04-24T12:59:16;2.30;;;2.10;;
1509;SDS011;746;48.688;9.428;2023-04-24T13:01:39;1.50;;;1.40;;
1509;SDS011;746;48.688;9.428;2023-04-24T13:04:00;1.50;;;1.40;;
1509;SDS011;746;48.688;9.428;2023-04-24T13:06:21;1.70;;;1.53;;
1509;SDS011;746;48.688;9.428;2023-04-24T13:08:43;1.60;;;1.50;;
1509;SDS011;746;48.688;9.428;2023-04-24T13:11:04;2.63;;;1.30;;
1509;SDS011;746;48.688;9.428;2023-04-24T13:13:26;1.37;;;1.30;;
1509;SDS011;746;48.688;9.428;2023-04-24T13:15:47;1.40;;;1.40;;
1509;SDS011;746;48.688;9.428;2023-04-24T13:18:10;1.50;;;1.43;;
1509;SDS011;746;48.688;9.428;2023-04-24T13:20:32;1.30;;;1.30;;
1509;SDS011;746;48.688;9.428;2023-04-24T13:22:55;1.47;;;1.47;;
1509;SDS011;746;48.688;9.428;2023-04-24T13:25:16;1.70;;;1.60;;
1509;SDS011;746;48.688;9.428;2023-04-24T13:27:38;1.60;;;1.50;;
1509;SDS011;746;48.688;9.428;2023-04-24T13:30:00;1.37;;;1.37;;
1509;SDS011;746;48.688;9.428;2023-04-24T13:32:21;1.50;;;1.50;;
1509;SDS011;746;48.688;9.428;2023-04-24T13:34:43;1.80;;;1.70;;
1509;SDS011;746;48.688;9.428;2023-04-24T13:37:04;1.63;;;1.53;;
1509;SDS011;746;48.688;9.428;2023-04-24T13:39:26;1.87;;;1.77;;
1509;SDS011;746;48.688;9.428;2023-04-24T13:41:47;1.70;;;1.60;;
1509;SDS011;746;48.688;9.428;2023-04-24T13:44:08;3.00;;;1.53;;
1509;SDS011;746;48.688;9.428;2023-04-24T13:46:29;1.70;;;1.60;;
1509;SDS011;746;48.688;9.428;2023-04-24T13:48:51;4.03;;;1.60;;
1509;SDS011;746;48.688;9.428;2023-04-24T13:51:13;1.60;;;1.60;;
1509;SDS011;746;48.688;9.428;2023-04-24T13:53:35;2.87;;;1.90;;
1509;SDS011;746;48.688;9.428;2023-04-24T13:55:58;1.80;;;1.70;;
1509;SDS011;746;48.688;9.428;2023-04-24T13:58:19;2.07;;;1.80;;
1509;SDS011;746;48.688;9.428;2023-04-24T14:00:41;1.73;;;1.60;;
1509;SDS011;746;48.688;9.428;2023-04-24T14:03:02;1.70;;;1.70;;
1509;SDS011;746;48.688;9.428;2023-04-24T14:05:24;1.90;;;1.80;;
1509;SDS011;746;48.688;9.428;2023-04-24T14:07:47;2.23;;;2.00;;
1509;SDS011;746;48.688;9.428;2023-04-24T14:10:09;1.77;;;1.67;;
1509;SDS011;746;48.688;9.428;2023-04-24T14:12:30;1.90;;;1.80;;
1509;SDS011;746;48.688;9.428;2023-04-24T14:14:52;2.63;;;2.40;;
1509;SDS011;746;48.688;9.428;2023-04-24T14:17:13;1.90;;;1.80;;
1509;SDS011;746;48.688;9.428;2023-04-24T14:19:34;2.70;;;2.10;;
1509;SDS011;746;48.688;9.428;2023-04-24T14:21:56;2.40;;;2.20;;
1509;SDS011;746;48.688;9.428;2023-04-24T14:24:19;1.93;;;1.83;;
1509;SDS011;746;48.688;9.428;2023-04-24T14:26:40;2.17;;;2.07;;
1509;SDS011;746;48.688;9.428;2023-04-24T14:29:01;2.17;;;1.97;;
1509;SDS011;746;48.688;9.428;2023-04-24T14:31:34;2.27;;;2.10;;
1509;SDS011;746;48.688;9.428;2023-04-24T14:33:55;2.37;;;2.10;;
1509;SDS011;746;48.688;9.428;2023-04-24T14:36:17;1.90;;;1.80;;
1509;SDS011;746;48.688;9.428;2023-04-24T14:38:38;2.10;;;2.00;;
1509;SDS011;746;48.688;9.428;2023-04-24T14:41:01;2.20;;;2.00;;
1509;SDS011;746;48.688;9.428;2023-04-24T14:43:32;2.00;;;1.80;;
1509;SDS011;746;48.688;9.428;2023-04-24T14:45:55;2.10;;;2.00;;
1509;SDS011;746;48.688;9.428;2023-04-24T14:48:16;2.30;;;2.10;;
1509;SDS011;746;48.688;9.428;2023-04-24T14:50:38;2.50;;;2.30;;
1509;SDS011;746;48.688;9.428;2023-04-24T14:52:59;2.47;;;1.97;;
1509;SDS011;746;48.688;9.428;2023-04-24T14:55:21;2.23;;;1.90;;
1509;SDS011;746;48.688;9.428;2023-04-24T14:57:44;2.83;;;2.37;;